Time;durP1;ratioP1;P1;durP2;ratioP2;P2;SDS_P1;SDS_P2;PMS_P1;PMS_P2;Temp;Humidity;BMP_temperature;BMP_pressure;BME280_temperature;BME280_humidity;BME280_pressure;Samples;Min_cycle;Max_cycle;Signal;HPM_P1;HPM_P2
2023/11/20 00:00:31;;;;;;;3.58;0.90;;;8.80;98.30;;;;;;2090262;28;20272;-67
2023/11/20 00:01:33;;;;;;;2.83;1.10;;;8.80;98.30;;;;;;2093364;28;20300;-67
2023/11/20 00:02:34;;;;;;;3.42;1.00;;;8.80;98.40;;;;;;2090904;28;20224;-67
2023/11/20 00:03:34;;;;;;;4.53;1.00;;;8.80;98.50;;;;;;2100565;28;20642;-67
2023/11/20 00:04:36;;;;;;;2.17;1.00;;;8.80;98.30;;;;;;2100750;28;20249;-67
2023/11/20 00:05:37;;;;;;;3.80;1.08;;;8.80;98.30;;;;;;2086119;28;20231;-68
2023/11/20 00:06:39;;;;;;;2.93;1.07;;;8.80;98.40;;;;;;2084426;28;20299;-67
2023/11/20 00:07:40;;;;;;;3.38;1.00;;;8.80;98.80;;;;;;2091534;28;20299;-67
2023/11/20 00:08:41;;;;;;;2.42;1.08;;;8.80;98.50;;;;;;2083360;28;20221;-67
2023/11/20 00:09:42;;;;;;;1.70;0.80;;;8.90;98.30;;;;;;2085517;28;20219;-68
2023/11/20 00:10:42;;;;;;;1.77;0.90;;;8.90;98.30;;;;;;2081931;28;20251;-67
2023/11/20 00:11:43;;;;;;;3.00;1.27;;;8.90;98.30;;;;;;2093201;28;20264;-67
2023/11/20 00:12:44;;;;;;;3.50;0.83;;;8.80;98.50;;;;;;2092552;28;20242;-67
2023/11/20 00:13:45;;;;;;;2.77;1.27;;;8.80;98.60;;;;;;2091508;28;20716;-67
2023/11/20 00:14:46;;;;;;;2.50;1.02;;;8.80;98.80;;;;;;2082112;28;20384;-67
2023/11/20 00:15:46;;;;;;;2.13;0.90;;;8.80;98.80;;;;;;2094649;28;20277;-67
2023/11/20 00:16:47;;;;;;;1.80;0.70;;;8.80;98.80;;;;;;2091469;28;20227;-67
2023/11/20 00:17:48;;;;;;;1.10;0.90;;;8.80;98.70;;;;;;2090958;28;20230;-67
2023/11/20 00:18:50;;;;;;;4.03;1.10;;;8.80;99.20;;;;;;2094348;28;20223;-67
2023/11/20 00:19:51;;;;;;;3.88;0.88;;;8.80;98.90;;;;;;2092976;28;20714;-67
2023/11/20 00:20:52;;;;;;;3.03;1.25;;;8.80;99.10;;;;;;2091571;28;20318;-67
2023/11/20 00:21:52;;;;;;;1.07;0.83;;;8.80;99.70;;;;;;2090796;28;20228;-67
2023/11/20 00:22:53;;;;;;;0.93;0.73;;;8.80;99.20;;;;;;2091632;28;20227;-67
2023/11/20 00:23:54;;;;;;;2.17;0.87;;;8.80;99.40;;;;;;2089148;28;20228;-68
2023/11/20 00:24:56;;;;;;;2.13;0.90;;;8.80;99.40;;;;;;2082575;28;20598;-68
2023/11/20 00:25:56;;;;;;;3.00;1.20;;;8.80;99.60;;;;;;2082517;28;20185;-67
2023/11/20 00:26:57;;;;;;;2.07;0.90;;;8.80;99.50;;;;;;2081704;28;20571;-68
2023/11/20 00:27:58;;;;;;;3.50;1.10;;;8.80;99.60;;;;;;2092079;28;20224;-68
2023/11/20 00:28:59;;;;;;;4.33;0.90;;;8.80;99.70;;;;;;2083300;28;20281;-67
2023/11/20 00:30:00;;;;;;;3.25;0.90;;;8.80;99.80;;;;;;2077183;28;20200;-68
2023/11/20 00:31:00;;;;;;;1.73;0.97;;;8.80;99.80;;;;;;2087966;28;20272;-68
2023/11/20 00:32:01;;;;;;;4.70;1.43;;;8.80;99.90;;;;;;2084825;28;20220;-68
2023/11/20 00:33:03;;;;;;;2.93;1.10;;;8.80;99.90;;;;;;2091070;28;20730;-67
2023/11/20 00:34:04;;;;;;;2.90;1.17;;;8.80;99.90;;;;;;2091801;28;20191;-68
2023/11/20 00:35:05;;;;;;;1.87;1.23;;;8.90;99.90;;;;;;2092040;28;20649;-68
2023/11/20 00:36:06;;;;;;;1.30;0.87;;;8.90;99.90;;;;;;2091177;28;20242;-67
2023/11/20 00:37:07;;;;;;;3.63;0.82;;;8.90;99.90;;;;;;2086717;28;20516;-67
2023/11/20 00:38:09;;;;;;;2.03;0.97;;;8.80;99.90;;;;;;2071308;28;20224;-68
2023/11/20 00:39:09;;;;;;;7.05;1.20;;;8.90;99.90;;;;;;2079928;28;20733;-68
2023/11/20 00:40:11;;;;;;;2.90;1.00;;;8.90;99.90;;;;;;2085321;28;20208;-67
2023/11/20 00:41:11;;;;;;;2.70;1.25;;;8.90;99.90;;;;;;2087590;28;20310;-67
2023/11/20 00:42:12;;;;;;;1.50;0.80;;;8.90;99.90;;;;;;2086631;28;20258;-67
2023/11/20 00:43:13;;;;;;;4.30;1.57;;;8.90;99.90;;;;;;2093459;28;20708;-67
2023/11/20 00:44:14;;;;;;;2.20;0.80;;;9.00;99.90;;;;;;2092872;28;20323;-67
2023/11/20 00:45:14;;;;;;;4.47;1.03;;;9.00;99.90;;;;;;2087644;28;20290;-67
2023/11/20 00:46:15;;;;;;;5.57;1.10;;;9.00;99.90;;;;;;2082923;28;20635;-68
2023/11/20 00:47:16;;;;;;;4.50;1.20;;;9.00;99.90;;;;;;2074276;28;20319;-67
2023/11/20 00:48:17;;;;;;;2.80;1.00;;;9.00;99.90;;;;;;2065864;28;20233;-67
2023/11/20 00:49:17;;;;;;;3.40;1.30;;;9.00;99.90;;;;;;2065333;28;20308;-67
2023/11/20 00:50:18;;;;;;;4.53;1.20;;;8.90;99.90;;;;;;2082349;28;21042;-67
2023/11/20 00:51:19;;;;;;;2.40;0.97;;;8.80;99.90;;;;;;2077266;28;20241;-67
2023/11/20 00:52:20;;;;;;;3.40;0.90;;;8.80;99.90;;;;;;2086054;28;20227;-67
2023/11/20 00:53:21;;;;;;;2.80;1.13;;;8.80;99.90;;;;;;2090150;28;20228;-67
2023/11/20 00:54:21;;;;;;;2.05;1.00;;;8.80;99.90;;;;;;2091184;28;20238;-67
2023/11/20 00:55:22;;;;;;;3.77;1.30;;;8.80;99.90;;;;;;2090015;28;20220;-67
2023/11/20 00:56:23;;;;;;;4.70;1.67;;;8.90;99.90;;;;;;2085789;28;20256;-67
2023/11/20 00:57:24;;;;;;;3.72;1.20;;;8.90;99.90;;;;;;2081573;28;20235;-68
2023/11/20 00:58:25;;;;;;;3.17;1.33;;;8.80;99.90;;;;;;2085299;28;20326;-67
2023/11/20 00:59:26;;;;;;;1.03;0.90;;;8.80;99.90;;;;;;2084078;28;20694;-67
2023/11/20 01:00:27;;;;;;;5.47;1.50;;;8.90;99.90;;;;;;2090824;28;20519;-67
2023/11/20 01:01:28;;;;;;;2.13;1.20;;;8.80;99.90;;;;;;2089026;28;20231;-67
2023/11/20 01:02:29;;;;;;;3.20;1.30;;;8.80;99.90;;;;;;2083866;28;20239;-67
2023/11/20 01:03:31;;;;;;;2.83;1.20;;;8.80;99.90;;;;;;2082417;28;20303;-67
2023/11/20 01:04:33;;;;;;;6.20;1.30;;;8.90;99.90;;;;;;2092763;28;20226;-67
2023/11/20 01:05:34;;;;;;;1.77;1.10;;;8.80;99.90;;;;;;2084950;28;20379;-67
2023/11/20 01:06:41;;;;;;;1.77;1.13;;;8.80;99.90;;;;;;2090131;28;20693;-67
2023/11/20 01:07:42;;;;;;;2.67;1.17;;;8.90;99.90;;;;;;2090954;28;20240;-68
2023/11/20 01:08:43;;;;;;;3.23;1.10;;;8.90;99.90;;;;;;2098613;28;20227;-68
2023/11/20 01:09:43;;;;;;;2.87;0.90;;;8.90;99.90;;;;;;2091680;28;20227;-68
2023/11/20 01:10:44;;;;;;;2.50;1.00;;;9.00;99.90;;;;;;2090019;28;20604;-68
2023/11/20 01:11:45;;;;;;;3.33;1.40;;;9.00;99.90;;;;;;2090021;28;20235;-68
2023/11/20 01:12:45;;;;;;;2.30;1.00;;;9.00;99.90;;;;;;2090324;28;20232;-68
2023/11/20 01:13:46;;;;;;;2.20;1.20;;;9.00;99.90;;;;;;2088920;28;20705;-68
2023/11/20 01:14:47;;;;;;;2.43;0.90;;;9.00;99.90;;;;;;2083598;28;20252;-67
2023/11/20 01:15:48;;;;;;;3.00;1.10;;;9.00;99.90;;;;;;2089603;28;20227;-68
2023/11/20 01:16:48;;;;;;;2.63;1.05;;;8.90;99.90;;;;;;2088630;28;20319;-67
2023/11/20 01:17:49;;;;;;;1.83;0.90;;;8.90;99.90;;;;;;2088017;28;20224;-65
2023/11/20 01:18:51;;;;;;;3.93;0.93;;;8.80;99.90;;;;;;2082945;28;20284;-65
2023/11/20 01:19:52;;;;;;;3.63;1.35;;;8.80;99.90;;;;;;2085299;28;20728;-67
2023/11/20 01:20:53;;;;;;;3.93;1.20;;;8.80;99.90;;;;;;2073490;28;20289;-68
2023/11/20 01:21:53;;;;;;;2.13;1.00;;;8.80;99.90;;;;;;2071642;28;20737;-68
2023/11/20 01:22:54;;;;;;;1.10;1.00;;;8.80;99.90;;;;;;2083399;28;20204;-68
2023/11/20 01:23:55;;;;;;;7.83;2.10;;;8.80;99.90;;;;;;2081844;28;20212;-68
2023/11/20 01:24:56;;;;;;;2.40;1.10;;;8.80;99.90;;;;;;2082647;28;20193;-66
2023/11/20 01:25:57;;;;;;;1.90;0.90;;;8.80;99.90;;;;;;2074239;28;20193;-66
2023/11/20 01:26:57;;;;;;;1.70;0.80;;;8.80;99.90;;;;;;2087219;28;20184;-66
2023/11/20 01:27:59;;;;;;;3.10;1.27;;;8.70;99.90;;;;;;2089798;28;20184;-66
2023/11/20 01:28:59;;;;;;;2.45;1.25;;;8.80;99.90;;;;;;2088857;28;20729;-66
2023/11/20 01:30:00;;;;;;;3.90;1.40;;;8.80;99.90;;;;;;2084332;28;20192;-66
2023/11/20 01:31:01;;;;;;;2.22;1.10;;;8.70;99.90;;;;;;2079736;28;20569;-66
2023/11/20 01:32:02;;;;;;;3.70;1.17;;;8.80;99.90;;;;;;2088983;28;20215;-66
2023/11/20 01:33:03;;;;;;;2.00;1.10;;;8.80;99.90;;;;;;2089190;28;20195;-66
2023/11/20 01:34:03;;;;;;;4.50;1.30;;;8.70;99.90;;;;;;2080507;28;20211;-66
2023/11/20 01:35:05;;;;;;;5.43;1.13;;;8.70;99.90;;;;;;2070781;28;20200;-66
2023/11/20 01:36:06;;;;;;;3.47;1.48;;;8.70;99.90;;;;;;2067543;28;20260;-66
2023/11/20 01:37:09;;;;;;;2.65;1.25;;;8.70;99.90;;;;;;2050055;28;20291;-66
2023/11/20 01:38:10;;;;;;;5.00;1.10;;;8.70;99.90;;;;;;2067268;28;20618;-66
2023/11/20 01:39:11;;;;;;;3.93;1.63;;;8.70;99.90;;;;;;2079990;28;20216;-66
2023/11/20 01:40:14;;;;;;;3.92;1.20;;;8.70;99.90;;;;;;2077710;28;20246;-66
2023/11/20 01:41:15;;;;;;;3.33;1.15;;;8.70;99.90;;;;;;2070999;28;20471;-66
2023/11/20 01:42:16;;;;;;;2.17;1.40;;;8.70;99.90;;;;;;2069579;28;20253;-66
2023/11/20 01:43:17;;;;;;;3.03;1.17;;;8.70;99.90;;;;;;2084454;28;20254;-66
2023/11/20 01:44:17;;;;;;;3.37;1.37;;;8.70;99.90;;;;;;2087277;28;20605;-66
2023/11/20 01:45:18;;;;;;;3.13;1.20;;;8.80;99.90;;;;;;2075569;28;20275;-66
2023/11/20 01:46:19;;;;;;;8.07;2.37;;;8.70;99.90;;;;;;2086205;28;20243;-66
2023/11/20 01:47:22;;;;;;;2.85;1.42;;;8.80;99.90;;;;;;2081349;28;20238;-66
2023/11/20 01:48:22;;;;;;;3.42;1.10;;;8.80;99.90;;;;;;2073957;28;20225;-66
2023/11/20 01:49:29;;;;;;;3.07;1.00;;;8.80;99.90;;;;;;2083086;28;20264;-66
2023/11/20 01:50:34;;;;;;;3.67;1.38;;;8.80;99.90;;;;;;2087070;28;20468;-66
2023/11/20 01:51:35;;;;;;;4.72;1.10;;;8.80;99.90;;;;;;2079380;28;20235;-66
2023/11/20 01:52:41;;;;;;;5.10;1.20;;;8.80;99.90;;;;;;2077514;28;20231;-65
2023/11/20 01:53:43;;;;;;;3.63;1.25;;;8.80;99.90;;;;;;2086430;28;20316;-66
2023/11/20 01:54:44;;;;;;;4.53;1.13;;;8.80;99.90;;;;;;2084015;28;20264;-66
2023/11/20 01:55:45;;;;;;;4.68;1.30;;;8.80;99.90;;;;;;2087727;28;20235;-65
2023/11/20 01:56:46;;;;;;;3.90;1.20;;;8.90;99.90;;;;;;2080661;28;20221;-66
2023/11/20 01:57:50;;;;;;;1.35;0.93;;;8.90;99.90;;;;;;2082104;28;20307;-66
2023/11/20 01:58:56;;;;;;;4.70;1.35;;;8.80;99.90;;;;;;2085972;28;20228;-66
2023/11/20 01:59:56;;;;;;;3.28;1.30;;;8.80;99.90;;;;;;2086891;28;20307;-67
2023/11/20 02:00:57;;;;;;;3.47;1.13;;;8.80;99.90;;;;;;2079415;28;20193;-66
2023/11/20 02:01:59;;;;;;;3.27;1.30;;;8.80;99.90;;;;;;2086937;28;20689;-66
2023/11/20 02:03:02;;;;;;;2.83;1.00;;;8.80;99.90;;;;;;2091797;28;20198;-66
2023/11/20 02:04:04;;;;;;;4.45;1.67;;;8.80;99.90;;;;;;2086895;28;20218;-66
2023/11/20 02:05:05;;;;;;;2.47;1.30;;;8.80;99.90;;;;;;2082383;28;20358;-66
2023/11/20 02:06:06;;;;;;;2.67;1.17;;;8.80;99.90;;;;;;2079513;28;20219;-67
2023/11/20 02:07:10;;;;;;;6.63;1.87;;;8.80;99.90;;;;;;2078271;28;20201;-66
2023/11/20 02:08:11;;;;;;;4.75;1.20;;;8.80;99.90;;;;;;2088032;28;20183;-66
2023/11/20 02:09:12;;;;;;;2.17;0.93;;;8.90;99.90;;;;;;2090653;28;20810;-66
2023/11/20 02:10:13;;;;;;;1.10;1.00;;;8.90;99.90;;;;;;2078266;28;20197;-66
2023/11/20 02:11:14;;;;;;;5.85;1.20;;;9.00;99.90;;;;;;2078863;28;21173;-66
2023/11/20 02:12:15;;;;;;;4.83;1.10;;;9.00;99.90;;;;;;2086203;28;20243;-66
2023/11/20 02:13:15;;;;;;;4.70;1.30;;;8.90;99.90;;;;;;2078457;28;20325;-66
2023/11/20 02:14:16;;;;;;;1.80;1.20;;;8.90;99.90;;;;;;2081471;28;20477;-66
2023/11/20 02:15:18;;;;;;;5.83;1.10;;;8.80;99.90;;;;;;2084746;28;20717;-66
2023/11/20 02:16:19;;;;;;;2.45;1.25;;;8.80;99.90;;;;;;2086693;28;20403;-66
2023/11/20 02:17:20;;;;;;;2.33;0.90;;;8.80;99.90;;;;;;2086393;28;20278;-66
2023/11/20 02:18:33;;;;;;;3.97;1.40;;;8.90;99.90;;;;;;2085638;28;20230;-66
2023/11/20 02:19:33;;;;;;;4.15;1.00;;;8.80;99.90;;;;;;2086407;28;20228;-66
2023/11/20 02:20:34;;;;;;;3.40;1.10;;;8.80;99.90;;;;;;2086852;28;20232;-66
2023/11/20 02:21:35;;;;;;;2.23;1.10;;;8.80;99.90;;;;;;2091266;28;20682;-66
2023/11/20 02:22:36;;;;;;;5.07;1.27;;;8.80;99.90;;;;;;2088946;28;20219;-66
2023/11/20 02:23:36;;;;;;;4.43;1.30;;;8.80;99.70;;;;;;2080448;28;20228;-66
2023/11/20 02:24:37;;;;;;;1.80;0.80;;;8.70;99.90;;;;;;2085743;28;20626;-66
2023/11/20 02:25:38;;;;;;;2.28;1.45;;;8.80;99.60;;;;;;2084607;28;20227;-66
2023/11/20 02:27:26;;;;;;;2.07;1.00;;;8.80;99.40;;;;;;2080948;28;20255;-66
2023/11/20 02:28:37;;;;;;;2.92;1.23;;;8.80;99.20;;;;;;2091895;28;20234;-66
2023/11/20 02:29:53;;;;;;;4.07;1.00;;;8.80;98.90;;;;;;2087869;28;20623;-66
2023/11/20 02:30:55;;;;;;;5.05;1.30;;;8.70;99.30;;;;;;2087799;28;20243;-67
2023/11/20 02:31:56;;;;;;;3.92;1.33;;;8.70;99.50;;;;;;2079889;28;20558;-67
2023/11/20 02:32:57;;;;;;;3.03;1.10;;;8.70;99.90;;;;;;2074063;28;20197;-67
2023/11/20 02:34:00;;;;;;;1.80;1.00;;;8.70;99.60;;;;;;2073939;28;20660;-67
2023/11/20 02:35:01;;;;;;;4.53;1.45;;;8.60;99.80;;;;;;2075980;28;20196;-66
2023/11/20 02:36:05;;;;;;;3.63;1.00;;;8.70;99.70;;;;;;2081496;28;20204;-66
2023/11/20 02:37:06;;;;;;;4.22;1.52;;;8.60;99.80;;;;;;2071668;28;20680;-67
2023/11/20 02:38:07;;;;;;;4.27;1.50;;;8.60;99.40;;;;;;2072251;28;20182;-66
2023/11/20 02:39:09;;;;;;;5.17;1.23;;;8.60;99.50;;;;;;2079839;28;20196;-66
2023/11/20 02:40:10;;;;;;;3.47;1.35;;;8.50;99.50;;;;;;2081253;28;20257;-66
2023/11/20 02:41:11;;;;;;;1.38;0.85;;;8.50;99.20;;;;;;2084736;28;20271;-66
2023/11/20 02:42:12;;;;;;;1.53;0.87;;;8.50;98.90;;;;;;2089207;28;20561;-66
2023/11/20 02:43:12;;;;;;;3.30;0.90;;;8.50;99.00;;;;;;2082561;28;20685;-66
2023/11/20 02:44:13;;;;;;;3.20;1.47;;;8.50;99.00;;;;;;2081437;28;20421;-66
2023/11/20 02:45:14;;;;;;;3.73;1.40;;;8.50;98.90;;;;;;2081125;28;20244;-66
2023/11/20 02:46:15;;;;;;;6.67;1.70;;;8.40;98.90;;;;;;2079119;28;20240;-66
2023/11/20 02:47:16;;;;;;;5.03;1.17;;;8.50;98.90;;;;;;2086653;28;20243;-66
2023/11/20 02:48:17;;;;;;;4.03;1.27;;;8.50;98.80;;;;;;2084833;28;20255;-66
2023/11/20 02:49:17;;;;;;;3.73;1.73;;;8.40;98.40;;;;;;2084717;28;20290;-67
2023/11/20 02:50:18;;;;;;;4.80;1.53;;;8.40;98.10;;;;;;2083208;28;20720;-66
2023/11/20 02:51:19;;;;;;;2.73;0.83;;;8.40;98.20;;;;;;2081772;28;20331;-67
2023/11/20 02:52:20;;;;;;;4.53;1.10;;;8.40;98.30;;;;;;2081559;28;20706;-66
2023/11/20 02:53:21;;;;;;;5.47;1.00;;;8.40;98.20;;;;;;2081175;28;20232;-66
2023/11/20 02:54:22;;;;;;;4.20;1.10;;;8.40;98.30;;;;;;2086199;28;20271;-66
2023/11/20 02:55:22;;;;;;;5.43;1.27;;;8.30;98.40;;;;;;2069661;28;20229;-66
2023/11/20 02:56:24;;;;;;;2.80;1.20;;;8.40;98.50;;;;;;2077746;28;20619;-66
2023/11/20 02:57:26;;;;;;;2.55;1.00;;;8.40;97.90;;;;;;2082357;28;20232;-66
2023/11/20 02:58:27;;;;;;;3.05;1.02;;;8.40;98.10;;;;;;2076452;28;20234;-66
2023/11/20 02:59:28;;;;;;;4.93;1.40;;;8.40;98.20;;;;;;2074962;28;20609;-66
2023/11/20 03:00:29;;;;;;;2.95;1.23;;;8.30;98.70;;;;;;2080165;28;20239;-66
2023/11/20 03:01:31;;;;;;;4.53;1.27;;;8.30;98.40;;;;;;2077953;28;20328;-66
2023/11/20 03:02:32;;;;;;;7.38;2.05;;;8.40;98.50;;;;;;2071804;28;20237;-66
2023/11/20 03:03:33;;;;;;;6.77;1.67;;;8.40;98.20;;;;;;2075395;28;20251;-66
2023/11/20 03:04:34;;;;;;;2.17;1.00;;;8.30;98.40;;;;;;2078472;28;20308;-66
2023/11/20 03:05:35;;;;;;;5.33;1.40;;;8.30;98.50;;;;;;2083258;28;20635;-66
2023/11/20 03:06:36;;;;;;;1.55;0.90;;;8.30;98.70;;;;;;2080050;28;20243;-66
2023/11/20 03:07:36;;;;;;;6.97;1.50;;;8.30;98.90;;;;;;2077632;28;20225;-67
2023/11/20 03:08:38;;;;;;;4.35;1.27;;;8.30;98.90;;;;;;2091935;28;20231;-67
2023/11/20 03:09:38;;;;;;;4.88;1.20;;;8.30;98.90;;;;;;2090136;28;20232;-67
2023/11/20 03:10:40;;;;;;;5.83;1.53;;;8.30;99.10;;;;;;2086991;28;20713;-67
2023/11/20 03:11:40;;;;;;;4.88;1.10;;;8.30;99.20;;;;;;2083183;28;20227;-67
2023/11/20 03:12:41;;;;;;;3.00;1.10;;;8.30;99.30;;;;;;2074275;28;20228;-67
2023/11/20 03:13:42;;;;;;;5.73;1.30;;;8.20;99.50;;;;;;2087622;28;20220;-67
2023/11/20 03:14:42;;;;;;;4.37;1.03;;;8.30;99.30;;;;;;2081886;28;20327;-67
2023/11/20 03:15:43;;;;;;;4.63;1.27;;;8.30;99.40;;;;;;2083168;28;20255;-67
2023/11/20 03:16:44;;;;;;;4.53;0.83;;;8.30;99.30;;;;;;2081061;28;20235;-67
2023/11/20 03:17:44;;;;;;;4.10;1.13;;;8.20;99.50;;;;;;2091731;28;20226;-67
2023/11/20 03:18:45;;;;;;;11.70;2.37;;;8.30;99.60;;;;;;2094833;28;20223;-67
2023/11/20 03:19:47;;;;;;;2.80;1.20;;;8.30;99.60;;;;;;2083370;28;20267;-67
2023/11/20 03:20:47;;;;;;;5.72;1.55;;;8.20;99.80;;;;;;2082350;28;20236;-67
2023/11/20 03:21:48;;;;;;;6.20;1.13;;;8.20;99.90;;;;;;2086449;28;20231;-67
2023/11/20 03:22:50;;;;;;;5.22;1.65;;;8.30;99.80;;;;;;2083917;28;20231;-67
2023/11/20 03:23:50;;;;;;;4.40;1.65;;;8.30;99.70;;;;;;2078949;28;20236;-67
2023/11/20 03:24:52;;;;;;;3.83;1.40;;;8.30;99.90;;;;;;2076990;28;20235;-67
2023/11/20 03:25:53;;;;;;;2.75;0.90;;;8.30;99.90;;;;;;2079115;28;20244;-67
2023/11/20 03:26:53;;;;;;;4.73;1.10;;;8.40;99.90;;;;;;2077789;28;20233;-67
2023/11/20 03:27:54;;;;;;;4.03;1.40;;;8.30;99.80;;;;;;2083096;28;20218;-67
2023/11/20 03:28:55;;;;;;;3.87;1.30;;;8.40;99.90;;;;;;2081719;28;20205;-67
2023/11/20 03:29:56;;;;;;;7.60;1.43;;;8.40;99.80;;;;;;2082244;28;20192;-67
2023/11/20 03:30:57;;;;;;;2.80;1.10;;;8.40;99.80;;;;;;2080572;28;20292;-67
2023/11/20 03:31:58;;;;;;;2.63;0.90;;;8.40;99.90;;;;;;2077086;28;20197;-67
2023/11/20 03:32:59;;;;;;;4.53;1.70;;;8.40;99.90;;;;;;2080098;28;20185;-67
2023/11/20 03:34:01;;;;;;;8.32;1.75;;;8.40;99.90;;;;;;2088818;28;20177;-67
2023/11/20 03:35:05;;;;;;;5.53;1.30;;;8.40;99.90;;;;;;2089473;28;20168;-67
2023/11/20 03:36:06;;;;;;;2.42;1.15;;;8.50;99.90;;;;;;2068199;28;20186;-67
2023/11/20 03:37:07;;;;;;;6.65;1.77;;;8.50;99.90;;;;;;2058893;28;20199;-67
2023/11/20 03:38:07;;;;;;;4.07;1.40;;;8.50;99.90;;;;;;2076393;28;20185;-67
2023/11/20 03:39:08;;;;;;;5.20;1.30;;;8.60;99.90;;;;;;2079279;28;20256;-67
2023/11/20 03:40:11;;;;;;;4.20;1.23;;;8.60;99.90;;;;;;2072086;28;20182;-67
2023/11/20 03:41:12;;;;;;;5.10;1.30;;;8.50;99.90;;;;;;2073028;28;20647;-67
2023/11/20 03:42:12;;;;;;;2.33;1.20;;;8.60;99.90;;;;;;2078648;28;20181;-67
2023/11/20 03:43:13;;;;;;;3.77;1.43;;;8.60;99.90;;;;;;2073909;28;20793;-67
2023/11/20 03:44:14;;;;;;;2.30;1.20;;;8.60;99.90;;;;;;2074509;28;20269;-66
2023/11/20 03:45:15;;;;;;;4.27;1.63;;;8.50;99.90;;;;;;2076506;28;20275;-67
2023/11/20 03:46:16;;;;;;;4.70;1.08;;;8.50;99.90;;;;;;2083627;28;20315;-67
2023/11/20 03:47:16;;;;;;;3.43;1.47;;;8.50;99.90;;;;;;2071959;28;20240;-67
2023/11/20 03:48:18;;;;;;;4.10;1.30;;;8.50;99.90;;;;;;2079914;28;20235;-67
2023/11/20 03:49:19;;;;;;;3.92;1.38;;;8.50;99.90;;;;;;2084841;28;20334;-67
2023/11/20 03:50:19;;;;;;;3.20;1.00;;;8.50;99.90;;;;;;2087189;28;20236;-67
2023/11/20 03:51:20;;;;;;;3.77;1.30;;;8.60;99.90;;;;;;2086885;28;20251;-67
2023/11/20 03:52:21;;;;;;;7.40;1.63;;;8.60;99.90;;;;;;2080026;28;20254;-67
2023/11/20 03:53:21;;;;;;;5.60;1.90;;;8.60;99.90;;;;;;2083794;28;20619;-67
2023/11/20 03:54:22;;;;;;;3.47;1.40;;;8.70;99.90;;;;;;2092515;28;20314;-67
2023/11/20 03:55:23;;;;;;;4.73;1.30;;;8.60;99.90;;;;;;2089762;28;20286;-66
2023/11/20 03:56:23;;;;;;;6.30;2.00;;;8.60;99.90;;;;;;2084697;28;20231;-67
2023/11/20 03:57:25;;;;;;;4.37;1.23;;;8.60;99.90;;;;;;2087879;28;20285;-67
2023/11/20 03:58:26;;;;;;;3.35;1.50;;;8.60;99.90;;;;;;2088077;28;20231;-67
2023/11/20 03:59:27;;;;;;;4.00;1.20;;;8.60;99.90;;;;;;2074870;28;20244;-67
2023/11/20 04:00:29;;;;;;;7.83;1.83;;;8.60;99.90;;;;;;2070999;28;20699;-67
2023/11/20 04:01:30;;;;;;;5.82;1.58;;;8.60;99.90;;;;;;2093173;28;20223;-67
2023/11/20 04:02:32;;;;;;;2.58;1.20;;;8.60;99.90;;;;;;2098341;28;20230;-67
2023/11/20 04:03:33;;;;;;;5.47;1.15;;;8.60;99.90;;;;;;2097508;28;20262;-67
2023/11/20 04:04:34;;;;;;;7.53;1.57;;;8.60;99.90;;;;;;2089839;28;20220;-67
2023/11/20 04:05:34;;;;;;;5.27;1.53;;;8.50;99.90;;;;;;2089465;28;20247;-66
2023/11/20 04:06:35;;;;;;;5.60;1.40;;;8.50;99.90;;;;;;2092590;28;20227;-67
2023/11/20 04:07:36;;;;;;;7.07;1.70;;;8.60;99.90;;;;;;2085777;28;20223;-67
2023/11/20 04:08:37;;;;;;;4.97;1.13;;;8.60;99.90;;;;;;2082980;28;20220;-67
2023/11/20 04:09:37;;;;;;;5.77;1.20;;;8.60;99.90;;;;;;2082880;28;20250;-67
2023/11/20 04:10:38;;;;;;;6.37;1.37;;;8.50;99.90;;;;;;2081587;28;20327;-67
2023/11/20 04:11:40;;;;;;;5.13;1.50;;;8.50;99.90;;;;;;2079583;28;20527;-67
2023/11/20 04:12:41;;;;;;;3.20;1.23;;;8.50;99.90;;;;;;2084700;28;20220;-67
2023/11/20 04:13:42;;;;;;;4.17;1.20;;;8.40;99.90;;;;;;2079883;28;20753;-67
2023/11/20 04:14:42;;;;;;;5.00;1.80;;;8.40;99.90;;;;;;2085803;28;20314;-67
2023/11/20 04:15:43;;;;;;;5.80;1.17;;;8.40;99.90;;;;;;2084341;28;20259;-67
2023/11/20 04:16:45;;;;;;;6.10;1.30;;;8.30;99.90;;;;;;2078708;28;20299;-67
2023/11/20 04:17:46;;;;;;;8.00;1.40;;;8.30;99.70;;;;;;2079744;28;20229;-67
2023/11/20 04:18:47;;;;;;;5.73;1.37;;;8.30;99.70;;;;;;2080964;28;20235;-67
2023/11/20 04:19:48;;;;;;;5.00;1.93;;;8.30;99.70;;;;;;2080562;28;20229;-67
2023/11/20 04:20:48;;;;;;;7.53;1.30;;;8.30;99.80;;;;;;2070937;28;20240;-67
2023/11/20 04:21:49;;;;;;;3.13;1.20;;;8.20;99.90;;;;;;2079026;28;20530;-67
2023/11/20 04:22:50;;;;;;;2.50;1.07;;;8.20;99.90;;;;;;2083258;28;20602;-67
2023/11/20 04:23:51;;;;;;;2.57;1.03;;;8.10;99.90;;;;;;2083021;28;20225;-67
2023/11/20 04:24:52;;;;;;;2.80;1.50;;;8.10;99.90;;;;;;2087149;28;20273;-67
2023/11/20 04:25:53;;;;;;;5.73;1.70;;;8.10;99.90;;;;;;2079602;28;20239;-66
2023/11/20 04:26:53;;;;;;;5.37;1.50;;;8.10;99.90;;;;;;2077779;28;20274;-68
2023/11/20 04:27:54;;;;;;;5.00;1.37;;;8.10;99.90;;;;;;2095377;28;20258;-68
2023/11/20 04:28:56;;;;;;;5.27;1.60;;;8.10;99.90;;;;;;2091756;28;20658;-67
2023/11/20 04:29:57;;;;;;;3.00;1.10;;;8.10;99.90;;;;;;2084740;28;20585;-67
2023/11/20 04:31:00;;;;;;;5.75;1.73;;;8.10;99.90;;;;;;2087521;28;20243;-67
2023/11/20 04:32:00;;;;;;;3.95;1.15;;;8.10;99.90;;;;;;2072247;28;20170;-67
2023/11/20 04:33:01;;;;;;;4.17;1.50;;;8.10;99.90;;;;;;2080006;28;20185;-67
2023/11/20 04:34:03;;;;;;;2.50;1.10;;;8.10;99.90;;;;;;2075803;28;20212;-67
2023/11/20 04:35:05;;;;;;;3.75;1.92;;;8.20;99.90;;;;;;2088959;28;20722;-67
2023/11/20 04:36:08;;;;;;;6.03;1.00;;;8.20;99.80;;;;;;2086450;28;20264;-67
2023/11/20 04:37:09;;;;;;;5.25;1.45;;;8.10;99.90;;;;;;2092259;28;20296;-67
2023/11/20 04:38:09;;;;;;;4.90;1.63;;;8.20;99.90;;;;;;2085495;28;20192;-67
2023/11/20 04:39:10;;;;;;;9.17;1.60;;;8.20;99.60;;;;;;2080156;28;20206;-67
2023/11/20 04:40:11;;;;;;;3.87;1.70;;;8.20;99.60;;;;;;2081612;28;21061;-67
2023/11/20 04:41:13;;;;;;;4.32;1.45;;;8.20;99.60;;;;;;2073846;28;20197;-67
2023/11/20 04:42:14;;;;;;;2.03;1.10;;;8.20;99.70;;;;;;2084612;28;20235;-67
2023/11/20 04:43:15;;;;;;;4.77;1.10;;;8.20;99.50;;;;;;2085233;28;20227;-67
2023/11/20 04:44:15;;;;;;;3.67;0.93;;;8.20;99.80;;;;;;2091085;28;20689;-67
2023/11/20 04:45:16;;;;;;;4.57;1.63;;;8.10;99.90;;;;;;2077496;28;20308;-67
2023/11/20 04:46:17;;;;;;;4.07;1.20;;;8.10;99.90;;;;;;2082707;28;20259;-67
2023/11/20 04:47:17;;;;;;;2.70;1.40;;;8.10;99.90;;;;;;2090788;28;20231;-67
2023/11/20 04:48:18;;;;;;;8.57;1.73;;;8.00;99.90;;;;;;2084531;28;20268;-67
2023/11/20 04:49:19;;;;;;;6.93;2.00;;;8.00;99.90;;;;;;2086099;28;20937;-67
2023/11/20 04:50:21;;;;;;;3.13;1.20;;;7.90;99.90;;;;;;2082597;28;20232;-67
2023/11/20 04:51:22;;;;;;;3.30;1.50;;;8.00;99.90;;;;;;2086757;28;20236;-67
2023/11/20 04:52:23;;;;;;;7.90;1.95;;;8.00;99.90;;;;;;2093255;28;20228;-67
2023/11/20 04:53:24;;;;;;;4.47;1.53;;;8.00;99.90;;;;;;2085232;28;20423;-67
2023/11/20 04:54:25;;;;;;;7.28;1.83;;;8.00;99.90;;;;;;2072410;28;20247;-67
2023/11/20 04:55:27;;;;;;;4.13;1.60;;;8.00;99.90;;;;;;2080331;28;20224;-67
2023/11/20 04:56:28;;;;;;;3.38;1.73;;;7.90;99.90;;;;;;2085016;28;20293;-67
2023/11/20 04:57:29;;;;;;;3.70;1.50;;;7.90;99.90;;;;;;2078996;28;20240;-67
2023/11/20 04:58:29;;;;;;;5.00;1.83;;;7.90;99.90;;;;;;2083296;28;20719;-67
2023/11/20 04:59:30;;;;;;;15.37;2.07;;;7.90;99.90;;;;;;2083977;28;20768;-67
2023/11/20 05:00:32;;;;;;;4.13;1.70;;;7.80;99.90;;;;;;2095198;28;20299;-67
2023/11/20 05:01:33;;;;;;;14.38;3.45;;;7.80;99.90;;;;;;2091985;28;20277;-67
2023/11/20 05:02:34;;;;;;;4.65;2.25;;;7.80;99.90;;;;;;2082243;28;20303;-67
2023/11/20 05:03:36;;;;;;;9.53;2.30;;;7.80;99.90;;;;;;2079638;28;20233;-67
2023/11/20 05:04:38;;;;;;;5.18;2.72;;;7.80;99.90;;;;;;2078416;28;20680;-67
2023/11/20 05:05:39;;;;;;;5.70;1.23;;;7.80;99.90;;;;;;2084392;28;20240;-67
2023/11/20 05:06:40;;;;;;;5.43;1.98;;;7.80;99.90;;;;;;2081087;28;20244;-67
2023/11/20 05:07:40;;;;;;;5.47;1.77;;;7.80;99.90;;;;;;2077480;28;20256;-67
2023/11/20 05:08:41;;;;;;;4.60;1.60;;;7.80;99.90;;;;;;2092066;28;20224;-66
2023/11/20 05:09:42;;;;;;;3.17;1.27;;;7.80;99.90;;;;;;2086303;28;20274;-66
2023/11/20 05:10:42;;;;;;;5.40;2.17;;;7.80;99.90;;;;;;2083211;28;20232;-66
2023/11/20 05:11:46;;;;;;;6.97;2.40;;;7.90;99.90;;;;;;2082956;28;20238;-66
2023/11/20 05:12:47;;;;;;;8.57;2.17;;;7.90;99.90;;;;;;2089042;28;20234;-66
2023/11/20 05:13:47;;;;;;;4.90;2.07;;;7.90;99.90;;;;;;2093385;28;20234;-66
2023/11/20 05:14:48;;;;;;;9.17;2.43;;;8.00;99.90;;;;;;2083380;28;20254;-66
2023/11/20 05:15:49;;;;;;;4.17;1.40;;;8.00;99.90;;;;;;2083828;28;20259;-66
2023/11/20 05:16:49;;;;;;;4.50;1.37;;;8.00;99.60;;;;;;2094553;28;20286;-66
2023/11/20 05:17:50;;;;;;;3.80;1.77;;;8.00;99.30;;;;;;2099872;28;20273;-67
2023/11/20 05:18:51;;;;;;;3.03;1.17;;;8.00;99.20;;;;;;2092728;28;20685;-67
2023/11/20 05:19:52;;;;;;;6.73;1.47;;;8.00;99.20;;;;;;2087049;28;20616;-67
2023/11/20 05:20:53;;;;;;;4.73;1.33;;;7.90;99.30;;;;;;2086837;28;20239;-67
2023/11/20 05:21:53;;;;;;;3.67;1.30;;;7.90;99.30;;;;;;2094671;28;20223;-67
2023/11/20 05:22:54;;;;;;;4.60;1.63;;;7.90;99.60;;;;;;2094815;28;20226;-67
2023/11/20 05:23:55;;;;;;;2.97;1.40;;;7.90;99.70;;;;;;2087862;28;20575;-67